Time;durP1;ratioP1;P1;durP2;ratioP2;P2;SDS_P1;SDS_P2;PMS_P1;PMS_P2;Temp;Humidity;BMP_temperature;BMP_pressure;BME280_temperature;BME280_humidity;BME280_pressure;Samples;Min_cycle;Max_cycle;Signal;HPM_P1;HPM_P2
2022/03/22 00:00:55;;;;;;;;;21.00;18.67;;;;;13.85;49.76;102431.06;5098649;27;46135;-48
2022/03/22 00:03:24;;;;;;;;;20.67;17.67;;;;;13.85;50.16;102433.75;5098943;27;45438;-49
2022/03/22 00:05:50;;;;;;;;;30.33;20.67;;;;;13.81;50.41;102427.78;5098318;27;45385;-49
2022/03/22 00:08:17;;;;;;;;;26.67;21.67;;;;;13.79;50.00;102432.44;5099287;27;45175;-50
2022/03/22 00:10:42;;;;;;;;;23.00;17.00;;;;;13.70;49.71;102419.81;5098518;27;45368;-49
2022/03/22 00:13:07;;;;;;;;;24.33;19.67;;;;;13.79;49.83;102442.28;5098290;27;45348;-48
2022/03/22 00:15:33;;;;;;;;;23.00;21.00;;;;;13.79;50.16;102439.59;5097766;27;46067;-51
2022/03/22 00:17:59;;;;;;;;;22.00;20.33;;;;;13.77;49.64;102441.53;5098480;27;45319;-49
2022/03/22 00:20:24;;;;;;;;;26.67;19.67;;;;;13.75;49.75;102444.34;5097964;27;45367;-50
2022/03/22 00:22:50;;;;;;;;;23.00;20.67;;;;;13.75;49.42;102440.84;5097987;27;45399;-50
2022/03/22 00:25:18;;;;;;;;;20.00;15.67;;;;;13.72;49.87;102440.09;5098264;27;45403;-49
2022/03/22 00:27:52;;;;;;;;;20.33;19.33;;;;;13.71;49.34;102451.78;5098238;27;45405;-49
2022/03/22 00:30:35;;;;;;;;;21.00;21.00;;;;;13.68;49.32;102446.66;5097915;27;45402;-49
2022/03/22 00:33:03;;;;;;;;;22.00;20.00;;;;;13.67;49.69;102449.47;5097962;27;45396;-49
2022/03/22 00:35:37;;;;;;;;;21.00;19.33;;;;;13.64;49.79;102449.72;5097890;27;45521;-50
2022/03/22 00:38:08;;;;;;;;;23.67;19.33;;;;;13.63;49.60;102451.56;5098049;27;45324;-49
2022/03/22 00:40:34;;;;;;;;;20.33;18.00;;;;;13.60;50.01;102457.16;5097580;27;46183;-49
2022/03/22 00:43:01;;;;;;;;;20.33;17.67;;;;;13.48;49.58;102437.63;5097660;27;45698;-49
2022/03/22 00:45:29;;;;;;;;;23.67;21.00;;;;;13.55;49.71;102459.34;5097807;27;45466;-51
2022/03/22 00:47:55;;;;;;;;;15.33;12.00;;;;;13.52;49.79;102458.75;5098011;27;45343;-49
2022/03/22 00:50:26;;;;;;;;;24.33;19.00;;;;;13.48;49.58;102452.78;5097220;27;45570;-49
2022/03/22 00:52:53;;;;;;;;;19.33;16.33;;;;;13.39;49.73;102449.03;5097393;27;45460;-49
2022/03/22 00:55:21;;;;;;;;;20.33;16.67;;;;;13.36;49.47;102448.44;5096623;27;45298;-51
2022/03/22 00:57:47;;;;;;;;;16.67;15.00;;;;;13.23;49.03;102433.41;5097867;27;45460;-50
2022/03/22 01:00:13;;;;;;;;;22.67;20.00;;;;;13.23;49.08;102437.88;5097469;27;46057;-51
2022/03/22 01:02:45;;;;;;;;;20.67;17.00;;;;;13.28;49.00;102450.88;5097572;27;45463;-50
2022/03/22 01:05:13;;;;;;;;;19.67;15.67;;;;;13.25;48.86;102451.97;5097280;27;45371;-55
2022/03/22 01:07:41;;;;;;;;;21.67;18.00;;;;;13.25;48.83;102443.97;5097828;27;45494;-49
2022/03/22 01:10:09;;;;;;;;;20.33;16.00;;;;;13.21;48.69;102443.31;5097189;27;47310;-50
2022/03/22 01:12:37;;;;;;;;;24.67;21.33;;;;;13.22;48.72;102449.50;5097345;27;45455;-49
2022/03/22 01:15:05;;;;;;;;;22.00;18.33;;;;;13.15;48.47;102445.63;5097436;27;45331;-50
2022/03/22 01:17:31;;;;;;;;;20.00;17.67;;;;;13.17;48.54;102444.53;5096892;27;45455;-50
2022/03/22 01:19:58;;;;;;;;;21.33;16.33;;;;;13.08;48.97;102436.41;5096691;27;47183;-50
2022/03/22 01:22:24;;;;;;;;;22.00;18.67;;;;;13.13;48.96;102445.75;5096924;27;45399;-50
2022/03/22 01:24:52;;;;;;;;;26.00;21.00;;;;;13.11;48.80;102442.34;5097260;27;45394;-51
2022/03/22 01:27:21;;;;;;;;;20.33;18.33;;;;;13.10;48.73;102445.13;5097336;27;45427;-49
2022/03/22 01:29:47;;;;;;;;;26.33;18.33;;;;;13.11;48.88;102444.19;5096811;27;46943;-51
2022/03/22 01:32:12;;;;;;;;;21.67;19.67;;;;;13.07;48.29;102442.72;5097118;27;45361;-52
2022/03/22 01:34:39;;;;;;;;;22.33;20.00;;;;;13.10;48.61;102443.31;5097143;27;45416;-48
2022/03/22 01:37:04;;;;;;;;;18.67;16.67;;;;;13.07;48.65;102443.56;5097180;27;46208;-48
2022/03/22 01:39:30;;;;;;;;;17.67;16.00;;;;;13.12;49.07;102438.72;5096588;27;46027;-46
2022/03/22 01:41:57;;;;;;;;;19.33;16.67;;;;;13.12;49.22;102445.88;5096818;27;45308;-47
2022/03/22 01:44:23;;;;;;;;;20.67;17.33;;;;;13.11;48.58;102449.53;5096939;27;45399;-50
2022/03/22 01:46:50;;;;;;;;;27.50;21.00;;;;;13.09;49.26;102449.63;5097353;27;45410;-50
2022/03/22 01:49:15;;;;;;;;;23.00;18.00;;;;;13.10;48.56;102447.81;5096588;27;46391;-52
2022/03/22 01:51:42;;;;;;;;;27.00;20.75;;;;;13.07;48.75;102440.91;5096631;27;45504;-48
2022/03/22 01:54:12;;;;;;;;;21.00;18.25;;;;;13.06;48.94;102441.88;5097107;27;45834;-49
2022/03/22 01:56:37;;;;;;;;;20.33;18.00;;;;;13.05;49.25;102445.50;5097086;27;45514;-48
2022/03/22 01:59:03;;;;;;;;;24.33;19.00;;;;;13.04;48.99;102440.28;5096524;27;46194;-48
2022/03/22 02:06:59;;;;;;;;;22.50;19.25;;;;;12.96;48.72;102446.22;5096536;27;45319;-47
2022/03/22 02:09:24;;;;;;;;;24.33;19.33;;;;;12.94;48.36;102440.16;5096501;27;46179;-49
2022/03/22 02:11:51;;;;;;;;;20.33;18.33;;;;;12.81;48.84;102429.59;5096474;27;45338;-48
2022/03/22 02:14:16;;;;;;;;;25.67;20.33;;;;;12.86;48.59;102439.91;5096571;27;45505;-50
2022/03/22 02:16:41;;;;;;;;;26.33;19.00;;;;;12.82;48.54;102441.97;5096959;27;45411;-50
2022/03/22 02:19:14;;;;;;;;;25.00;18.00;;;;;12.77;48.77;102441.50;5094987;27;46094;-49
2022/03/22 02:21:41;;;;;;;;;29.00;19.00;;;;;12.73;48.51;102442.69;5096516;27;45291;-50
2022/03/22 02:24:07;;;;;;;;;21.00;15.67;;;;;12.69;48.06;102443.91;5096707;27;45345;-50
2022/03/22 02:26:32;;;;;;;;;20.00;17.00;;;;;12.64;48.55;102441.59;5096826;27;45438;-48
2022/03/22 02:28:58;;;;;;;;;19.50;18.50;;;;;12.61;48.11;102447.16;5096643;27;46349;-52
2022/03/22 02:31:26;;;;;;;;;19.50;18.75;;;;;12.58;48.03;102436.72;5099807;27;45501;-49
2022/03/22 02:33:52;;;;;;;;;20.67;18.67;;;;;12.54;48.65;102443.25;5100217;27;45425;-48
2022/03/22 02:36:18;;;;;;;;;24.33;18.33;;;;;12.52;48.28;102447.88;5100080;27;45454;-46
2022/03/22 02:38:43;;;;;;;;;25.00;18.75;;;;;12.47;48.66;102450.03;5100183;27;46202;-49
2022/03/22 02:41:20;;;;;;;;;19.25;18.50;;;;;12.42;48.08;102436.19;5099862;27;45750;-50
2022/03/22 02:43:48;;;;;;;;;18.00;17.67;;;;;12.44;48.71;102445.78;5099743;27;45423;-50
2022/03/22 02:46:14;;;;;;;;;23.00;19.50;;;;;12.42;48.53;102444.19;5100048;27;45389;-50
2022/03/22 02:48:40;;;;;;;;;28.25;22.50;;;;;12.35;48.69;102445.66;5099310;27;46265;-48
2022/03/22 02:51:06;;;;;;;;;24.75;20.50;;;;;12.35;48.06;102441.16;5099466;27;45807;-49
2022/03/22 02:53:31;;;;;;;;;23.00;21.00;;;;;12.26;48.33;102416.97;5099625;27;45339;-51
2022/03/22 02:55:57;;;;;;;;;27.75;19.25;;;;;12.27;48.49;102430.22;5098504;27;45338;-48
2022/03/22 02:58:22;;;;;;;;;22.33;18.00;;;;;12.35;48.34;102443.81;5099608;27;45441;-50
2022/03/22 03:00:47;;;;;;;;;19.25;18.25;;;;;12.37;48.26;102446.38;5099384;27;45512;-48
2022/03/22 03:03:14;;;;;;;;;24.50;21.50;;;;;12.35;48.39;102449.16;5098232;27;45408;-48
2022/03/22 03:05:39;;;;;;;;;20.25;18.25;;;;;12.34;48.40;102450.09;5099740;27;45254;-49
2022/03/22 03:08:04;;;;;;;;;25.75;17.75;;;;;12.33;48.01;102458.25;5099089;27;46021;-48
2022/03/22 03:10:30;;;;;;;;;25.75;22.50;;;;;12.21;48.35;102439.50;5099145;27;45374;-49
2022/03/22 03:13:04;;;;;;;;;24.75;20.50;;;;;12.29;48.43;102457.63;5099634;27;45525;-48
2022/03/22 03:15:30;;;;;;;;;19.50;18.00;;;;;12.28;47.89;102461.25;5099606;27;45398;-48
2022/03/22 03:17:57;;;;;;;;;16.50;12.50;;;;;12.22;48.36;102456.41;5099007;27;46212;-50
2022/03/22 03:20:23;;;;;;;;;21.00;16.25;;;;;12.19;48.21;102454.81;5099024;27;45312;-49
2022/03/22 03:22:48;;;;;;;;;22.75;16.50;;;;;12.18;48.48;102460.25;5099027;27;45275;-48
2022/03/22 03:25:14;;;;;;;;;28.25;18.25;;;;;12.15;47.97;102463.16;5099312;27;45468;-48
2022/03/22 03:27:40;;;;;;;;;21.50;17.75;;;;;12.15;47.98;102461.34;5099022;27;47121;-46
2022/03/22 03:30:07;;;;;;;;;22.75;16.25;;;;;12.13;48.05;102455.25;5098501;27;45446;-48
2022/03/22 03:32:33;;;;;;;;;20.33;17.00;;;;;12.13;47.76;102463.25;5098731;27;45349;-49
2022/03/22 03:34:59;;;;;;;;;19.75;18.25;;;;;12.10;47.94;102460.84;5099284;27;45408;-49
2022/03/22 03:37:25;;;;;;;;;21.50;18.75;;;;;12.04;48.15;102460.44;5098461;27;45480;-50
2022/03/22 03:39:51;;;;;;;;;29.25;24.75;;;;;12.04;48.23;102463.09;5098974;27;45413;-49
2022/03/22 03:42:16;;;;;;;;;20.75;17.00;;;;;12.01;47.83;102460.66;5097830;27;45425;-48
2022/03/22 03:47:26;;;;;;;;;26.75;18.50;;;;;11.96;48.45;102464.50;5099750;27;45538;-49
2022/03/22 03:49:58;;;;;;;;;20.50;18.75;;;;;11.94;48.00;102462.94;5098805;27;45387;-50
2022/03/22 03:52:26;;;;;;;;;22.75;17.25;;;;;11.91;48.33;102464.00;5097579;27;45376;-49
2022/03/22 03:54:53;;;;;;;;;25.50;18.75;;;;;11.88;48.45;102463.38;5098903;27;45368;-49
2022/03/22 03:57:20;;;;;;;;;22.00;18.50;;;;;11.84;48.49;102468.09;5098449;27;46417;-49
2022/03/22 03:59:46;;;;;;;;;24.75;15.50;;;;;11.79;48.52;102464.88;5098666;27;45449;-49
2022/03/22 04:02:11;;;;;;;;;22.00;18.25;;;;;11.80;48.52;102465.72;5098466;27;45387;-49
2022/03/22 04:04:39;;;;;;;;;23.50;20.00;;;;;11.76;48.54;102472.25;5098939;27;45338;-49
2022/03/22 04:07:06;;;;;;;;;24.50;18.50;;;;;11.73;48.75;102473.31;5098067;27;45466;-48
2022/03/22 04:09:33;;;;;;;;;26.25;20.25;;;;;11.65;49.12;102465.88;5098477;27;45296;-50
2022/03/22 04:11:59;;;;;;;;;16.25;13.50;;;;;11.69;49.17;102475.34;5098324;27;45427;-50
2022/03/22 04:14:25;;;;;;;;;23.00;21.75;;;;;11.64;49.30;102482.84;5098334;27;45475;-48
2022/03/22 04:16:50;;;;;;;;;28.50;20.75;;;;;11.62;48.78;102484.75;5097978;27;45681;-49
2022/03/22 04:19:16;;;;;;;;;21.75;18.50;;;;;11.59;49.13;102486.81;5097732;27;45568;-53
2022/03/22 04:21:41;;;;;;;;;28.00;22.00;;;;;11.56;49.31;102479.88;5098573;27;45252;-51
2022/03/22 04:24:08;;;;;;;;;22.75;16.75;;;;;11.54;49.32;102483.59;5098132;27;45464;-49
2022/03/22 04:26:41;;;;;;;;;23.75;18.00;;;;;11.52;49.17;102488.22;5098157;27;45371;-51
2022/03/22 04:34:41;;;;;;;;;25.25;22.25;;;;;11.41;49.53;102483.63;5098323;27;45415;-48
2022/03/22 04:37:08;;;;;;;;;23.25;18.00;;;;;11.37;49.95;102484.81;5097233;27;45384;-49
2022/03/22 04:39:35;;;;;;;;;23.50;18.75;;;;;11.33;49.88;102483.34;5097745;27;45436;-53
2022/03/22 04:42:01;;;;;;;;;24.25;23.25;;;;;11.37;49.92;102496.31;5097881;27;45540;-50
2022/03/22 04:44:29;;;;;;;;;27.75;21.50;;;;;11.27;49.71;102481.97;5097096;27;45407;-48
2022/03/22 04:46:56;;;;;;;;;25.25;22.50;;;;;11.36;50.07;102496.44;5097543;27;46932;-53
2022/03/22 04:49:22;;;;;;;;;32.50;22.00;;;;;11.33;50.04;102496.66;5097391;27;45383;-50
2022/03/22 04:57:17;;;;;;;;;25.75;21.00;;;;;11.25;50.28;102502.56;5097349;27;45339;-49
2022/03/22 04:59:43;;;;;;;;;24.00;18.75;;;;;11.15;50.04;102494.31;5097040;27;45446;-51
2022/03/22 05:02:09;;;;;;;;;27.50;21.00;;;;;11.16;50.23;102496.03;5097700;27;45228;-52
2022/03/22 05:04:35;;;;;;;;;27.50;20.00;;;;;11.19;50.37;102510.94;5097816;27;45339;-50
2022/03/22 05:07:00;;;;;;;;;20.50;19.25;;;;;11.15;50.50;102506.78;5097423;27;45941;-49
2022/03/22 05:09:28;;;;;;;;;29.00;23.25;;;;;11.15;50.24;102512.97;5097158;27;45492;-49
2022/03/22 05:11:54;;;;;;;;;21.00;19.00;;;;;11.14;50.16;102510.44;5097805;27;45516;-50
2022/03/22 05:14:19;;;;;;;;;26.50;21.75;;;;;11.12;50.26;102509.66;5097566;27;45359;-50
2022/03/22 05:16:45;;;;;;;;;25.75;23.25;;;;;11.13;50.27;102511.41;5097460;27;46267;-49
2022/03/22 05:19:13;;;;;;;;;23.50;20.50;;;;;11.09;50.53;102516.06;5097369;27;45855;-50
2022/03/22 05:21:39;;;;;;;;;28.25;23.75;;;;;11.10;50.63;102512.44;5097359;27;45884;-49
2022/03/22 05:24:05;;;;;;;;;27.50;23.00;;;;;11.05;50.64;102511.06;5096060;27;45541;-49
2022/03/22 05:26:30;;;;;;;;;33.75;24.50;;;;;11.03;50.02;102511.16;5096821;27;45449;-47
2022/03/22 05:28:56;;;;;;;;;30.25;24.00;;;;;10.99;50.62;102515.84;5097343;27;45311;-49
2022/03/22 05:31:21;;;;;;;;;24.50;20.50;;;;;10.98;50.75;102521.28;5097275;27;45311;-49
2022/03/22 05:33:48;;;;;;;;;18.50;16.75;;;;;10.91;50.79;102520.88;5097315;27;45705;-49
2022/03/22 05:36:14;;;;;;;;;34.00;22.25;;;;;10.90;50.97;102528.94;5097473;27;45376;-48
2022/03/22 05:38:39;;;;;;;;;29.75;23.00;;;;;10.88;51.24;102536.19;5096670;27;45348;-50
2022/03/22 05:41:06;;;;;;;;;27.00;20.75;;;;;10.84;50.81;102534.69;5097325;27;45303;-48
2022/03/22 05:43:31;;;;;;;;;34.00;25.50;;;;;10.84;50.61;102534.69;5096949;27;45626;-49
2022/03/22 05:45:57;;;;;;;;;27.75;23.75;;;;;10.82;51.19;102531.28;5096681;27;46967;-48
2022/03/22 05:48:23;;;;;;;;;24.75;22.25;;;;;10.78;50.84;102535.09;5096906;27;45489;-48
2022/03/22 05:50:49;;;;;;;;;34.50;26.75;;;;;10.70;50.86;102530.28;5096825;27;45420;-48
2022/03/22 05:53:15;;;;;;;;;26.50;25.50;;;;;10.72;50.55;102547.03;5096898;27;45382;-49
2022/03/22 05:55:41;;;;;;;;;24.25;21.75;;;;;10.66;50.98;102540.31;5096560;27;45316;-51
2022/03/22 05:58:08;;;;;;;;;35.00;24.50;;;;;10.63;51.35;102548.50;5096769;27;45622;-48
2022/03/22 06:00:34;;;;;;;;;29.00;22.75;;;;;10.60;50.58;102551.38;5096926;27;45426;-50
2022/03/22 06:03:01;;;;;;;;;25.25;24.00;;;;;10.59;51.25;102554.13;5096956;27;45541;-47
2022/03/22 06:05:28;;;;;;;;;33.00;23.50;;;;;10.57;51.10;102551.56;5095560;27;45377;-46
2022/03/22 06:07:54;;;;;;;;;30.25;24.00;;;;;10.54;51.47;102559.78;5096336;27;45363;-49
2022/03/22 06:10:20;;;;;;;;;33.00;26.25;;;;;10.49;51.08;102554.75;5096452;27;45390;-48
2022/03/22 06:12:48;;;;;;;;;36.00;24.00;;;;;10.54;51.00;102578.41;5096835;27;45449;-49
2022/03/22 06:15:16;;;;;;;;;29.75;26.50;;;;;10.52;50.96;102574.13;5096612;27;46113;-50
2022/03/22 06:17:51;;;;;;;;;30.00;25.50;;;;;10.54;51.42;102575.75;5096394;27;45440;-49
2022/03/22 06:20:18;;;;;;;;;36.00;24.75;;;;;10.57;51.36;102578.16;5096459;27;45285;-49
2022/03/22 06:22:48;;;;;;;;;27.25;24.75;;;;;10.55;51.07;102577.44;5096685;27;45458;-53
2022/03/22 06:25:15;;;;;;;;;35.75;24.75;;;;;10.57;50.83;102588.81;5096035;27;46524;-49
2022/03/22 06:27:42;;;;;;;;;31.25;25.25;;;;;10.56;50.67;102581.78;5096287;27;45335;-50
2022/03/22 06:30:09;;;;;;;;;21.25;17.25;;;;;10.57;50.77;102583.50;5096423;27;45383;-52
2022/03/22 06:32:50;;;;;;;;;28.25;23.00;;;;;10.59;50.41;102588.72;5096289;27;45388;-52
2022/03/22 06:35:18;;;;;;;;;36.00;24.75;;;;;10.61;50.90;102584.16;5096060;27;47451;-52
2022/03/22 06:37:45;;;;;;;;;24.25;23.75;;;;;10.63;50.48;102591.09;5094931;27;45487;-50
2022/03/22 06:40:12;;;;;;;;;29.00;23.25;;;;;10.61;50.35;102589.47;5095875;27;45361;-52
2022/03/22 06:42:38;;;;;;;;;25.25;21.75;;;;;10.68;50.36;102591.63;5096365;27;45178;-49
2022/03/22 06:45:05;;;;;;;;;30.25;22.50;;;;;10.71;50.33;102599.41;5095823;27;46040;-53
2022/03/22 06:47:31;;;;;;;;;32.50;28.75;;;;;10.76;50.31;102596.44;5096181;27;45323;-49
2022/03/22 06:49:56;;;;;;;;;37.25;27.00;;;;;10.82;49.91;102603.16;5096000;27;45603;-50
2022/03/22 06:52:22;;;;;;;;;12.50;12.50;;;;;10.85;49.67;102600.31;5096248;27;45405;-50
2022/03/22 06:54:47;;;;;;;;;34.75;27.00;;;;;10.86;49.78;102602.00;5095744;27;47025;-53
2022/03/22 06:57:13;;;;;;;;;29.50;26.25;;;;;10.90;49.77;102609.66;5096090;27;45372;-53
2022/03/22 06:59:38;;;;;;;;;35.50;25.50;;;;;10.92;49.80;102606.94;5096048;27;45457;-52
2022/03/22 07:02:06;;;;;;;;;32.00;27.50;;;;;10.88;49.50;102592.97;5095953;27;45306;-53
2022/03/22 07:04:32;;;;;;;;;27.25;27.00;;;;;10.95;49.01;102617.34;5095956;27;46518;-50
2022/03/22 07:06:58;;;;;;;;;25.00;19.25;;;;;10.99;48.92;102605.53;5095948;27;45337;-51
2022/03/22 07:09:23;;;;;;;;;32.75;23.25;;;;;11.04;48.71;102605.22;5096063;27;45416;-53
2022/03/22 07:11:52;;;;;;;;;29.25;26.50;;;;;11.06;48.70;102598.84;5096348;27;45433;-49
2022/03/22 07:14:25;;;;;;;;;26.75;24.75;;;;;11.10;48.46;102602.16;5095914;27;46665;-52
2022/03/22 07:16:51;;;;;;;;;33.50;28.25;;;;;11.16;48.58;102610.56;5097369;27;45450;-52
2022/03/22 07:19:20;;;;;;;;;36.50;30.50;;;;;11.22;48.69;102610.16;5099426;27;45464;-51
2022/03/22 07:21:45;;;;;;;;;35.75;25.00;;;;;11.30;48.22;102612.31;5099692;27;45343;-51
2022/03/22 07:24:13;;;;;;;;;43.25;31.25;;;;;11.34;47.96;102612.94;5099194;27;45388;-51
2022/03/22 07:26:40;;;;;;;;;38.75;24.50;;;;;11.44;47.77;102609.53;5099743;27;45356;-49
2022/03/22 07:29:07;;;;;;;;;35.00;28.00;;;;;11.52;47.40;102617.00;5099905;27;45452;-52
2022/03/22 07:31:37;;;;;;;;;38.00;27.00;;;;;11.58;47.47;102621.88;5099581;27;45524;-52
2022/03/22 07:34:06;;;;;;;;;39.00;31.00;;;;;11.67;47.26;102623.94;5098765;27;45615;-51
2022/03/22 07:36:33;;;;;;;;;32.25;25.00;;;;;11.80;46.75;102618.56;5099314;27;45329;-50
2022/03/22 07:39:00;;;;;;;;;30.75;24.00;;;;;11.90;46.68;102616.97;5099785;27;45398;-48
2022/03/22 07:41:26;;;;;;;;;36.25;30.25;;;;;11.95;46.54;102619.31;5099443;27;45449;-51
2022/03/22 07:43:54;;;;;;;;;34.50;25.50;;;;;11.99;46.26;102615.47;5099024;27;45465;-49
2022/03/22 07:46:26;;;;;;;;;36.25;32.00;;;;;12.10;46.11;102618.22;5098609;27;45311;-47
2022/03/22 07:48:52;;;;;;;;;34.75;27.25;;;;;12.20;46.08;102613.06;5098869;27;45462;-49
2022/03/22 07:54:02;;;;;;;;;35.75;28.50;;;;;12.41;45.35;102626.66;5098594;27;45341;-50
2022/03/22 07:56:28;;;;;;;;;25.25;21.75;;;;;12.52;45.22;102624.06;5098671;27;45525;-49
2022/03/22 07:58:53;;;;;;;;;30.25;26.00;;;;;12.49;45.17;102617.13;5098434;27;45392;-48
2022/03/22 08:01:19;;;;;;;;;27.75;27.00;;;;;12.60;44.41;102632.34;5098673;27;45386;-47
2022/03/22 08:03:44;;;;;;;;;30.00;25.75;;;;;12.58;44.03;102631.59;5098546;27;46876;-48
2022/03/22 08:06:09;;;;;;;;;30.75;21.50;;;;;12.56;43.98;102636.22;5098553;27;45415;-47
2022/03/22 08:08:37;;;;;;;;;34.75;30.50;;;;;12.59;43.68;102619.94;5098686;27;45366;-47
2022/03/22 08:11:06;;;;;;;;;30.25;28.50;;;;;12.73;43.53;102633.13;5098566;27;45406;-48
2022/03/22 08:13:34;;;;;;;;;33.00;25.75;;;;;12.84;43.18;102626.97;5098305;27;45407;-48
2022/03/22 08:15:59;;;;;;;;;34.00;27.75;;;;;12.93;43.16;102612.91;5098125;27;45445;-49
2022/03/22 08:18:25;;;;;;;;;38.50;30.00;;;;;13.13;41.91;102623.91;5098338;27;45288;-49
2022/03/22 08:20:50;;;;;;;;;30.00;27.25;;;;;13.29;41.77;102626.31;5098493;27;45327;-52
2022/03/22 08:23:15;;;;;;;;;32.25;30.25;;;;;13.43;41.15;102634.09;5097400;27;46283;-49
2022/03/22 08:25:43;;;;;;;;;39.75;28.75;;;;;13.54;40.78;102634.13;5097992;27;45223;-50
2022/03/22 08:28:10;;;;;;;;;34.00;26.25;;;;;13.76;40.62;102632.44;5097846;27;45357;-48
2022/03/22 08:30:38;;;;;;;;;39.00;28.25;;;;;13.95;39.34;102624.66;5098358;27;45432;-48
2022/03/22 08:33:09;;;;;;;;;29.50;24.75;;;;;14.14;39.20;102627.53;5097936;27;45468;-48
2022/03/22 08:35:36;;;;;;;;;32.75;26.75;;;;;14.42;37.56;102628.81;5097926;27;45402;-47
2022/03/22 08:38:02;;;;;;;;;33.25;26.25;;;;;14.83;37.23;102619.22;5098085;27;45299;-47
2022/03/22 08:40:28;;;;;;;;;30.67;25.00;;;;;16.45;34.14;102620.28;5098099;27;45360;-47
2022/03/22 08:42:56;;;;;;;;;29.00;25.00;;;;;17.94;31.19;102621.47;5096323;27;46815;-47
2022/03/22 08:45:23;;;;;;;;;25.67;20.67;;;;;19.18;28.62;102619.88;5098038;27;45402;-49
2022/03/22 08:47:51;;;;;;;;;28.00;21.33;;;;;20.15;29.88;102616.00;5097862;27;45322;-50
2022/03/22 08:50:18;;;;;;;;;21.33;21.00;;;;;20.95;25.58;102610.06;5097991;27;45442;-50
2022/03/22 08:52:47;;;;;;;;;25.00;20.67;;;;;21.86;24.71;102606.13;5097763;27;46218;-49
2022/03/22 08:55:15;;;;;;;;;26.00;23.00;;;;;22.84;23.98;102611.00;5097520;27;45338;-48
2022/03/22 08:57:41;;;;;;;;;22.67;20.67;;;;;23.39;22.25;102602.50;5097823;27;45358;-49
2022/03/22 09:00:10;;;;;;;;;24.33;22.00;;;;;24.05;21.74;102613.41;5097672;27;45461;-50
2022/03/22 09:02:39;;;;;;;;;19.33;17.00;;;;;24.30;21.76;102604.94;5097514;27;46025;-49
2022/03/22 09:07:51;;;;;;;;;19.67;18.67;;;;;24.89;18.06;102610.13;5097752;27;45415;-49
2022/03/22 09:10:21;;;;;;;;;23.33;20.00;;;;;25.24;16.54;102619.25;5097847;27;45414;-49
2022/03/22 09:12:49;;;;;;;;;19.00;19.00;;;;;25.25;16.78;102622.81;5097555;27;46436;-48
2022/03/22 09:15:16;;;;;;;;;19.67;16.00;;;;;25.41;17.55;102619.78;5097451;27;45495;-47
2022/03/22 09:17:41;;;;;;;;;21.00;15.50;;;;;25.93;18.24;102612.94;5097680;27;45327;-49
2022/03/22 09:20:07;;;;;;;;;21.00;18.00;;;;;26.24;17.15;102611.56;5097677;27;45233;-50
2022/03/22 09:22:34;;;;;;;;;25.00;20.67;;;;;26.19;18.39;102608.63;5097166;27;46220;-48
2022/03/22 09:25:00;;;;;;;;;20.25;19.25;;;;;26.41;16.74;102615.59;5097279;27;45301;-50
2022/03/22 09:27:25;;;;;;;;;23.75;19.50;;;;;26.58;16.95;102616.09;5097136;27;45391;-49
2022/03/22 09:29:51;;;;;;;;;24.25;20.75;;;;;26.62;16.36;102612.72;5097708;27;45367;-49
2022/03/22 09:32:16;;;;;;;;;18.25;17.75;;;;;26.00;16.85;102605.66;5097133;27;46035;-49
2022/03/22 09:34:43;;;;;;;;;23.25;22.25;;;;;25.61;18.49;102618.00;5097188;27;45390;-47
2022/03/22 09:37:09;;;;;;;;;22.75;16.50;;;;;25.27;17.04;102612.53;5097316;27;45460;-49
2022/03/22 09:39:34;;;;;;;;;20.25;17.50;;;;;25.27;16.94;102613.38;5094998;27;45341;-51
2022/03/22 09:42:03;;;;;;;;;20.00;20.00;;;;;25.16;17.84;102615.81;5096763;27;45268;-48
2022/03/22 09:44:29;;;;;;;;;16.50;14.50;;;;;25.24;17.50;102615.66;5099633;27;45409;-51
2022/03/22 09:46:56;;;;;;;;;24.25;18.50;;;;;25.19;16.34;102601.81;5116902;27;45313;-49
2022/03/22 09:49:21;;;;;;;;;15.75;13.50;;;;;25.03;17.60;102611.06;5117623;27;45402;-51
2022/03/22 09:51:50;;;;;;;;;24.50;20.50;;;;;24.75;17.60;102611.06;5117029;27;46204;-48
2022/03/22 09:54:19;;;;;;;;;20.50;16.50;;;;;24.80;17.64;102605.88;5117144;27;45386;-47
2022/03/22 09:56:46;;;;;;;;;23.75;19.75;;;;;25.16;16.34;102608.50;5117091;27;45493;-48
2022/03/22 09:59:14;;;;;;;;;21.50;17.75;;;;;25.59;15.91;102600.19;5117363;27;45364;-49
2022/03/22 10:01:40;;;;;;;;;23.25;19.00;;;;;25.97;17.92;102606.03;5116623;27;47221;-50
2022/03/22 10:04:08;;;;;;;;;19.75;19.75;;;;;26.09;16.52;102588.03;5116944;27;45425;-49
2022/03/22 10:06:35;;;;;;;;;21.00;18.75;;;;;26.59;15.76;102596.78;5117189;27;45431;-51
2022/03/22 10:09:03;;;;;;;;;22.00;18.25;;;;;27.15;16.47;102597.44;5116927;27;45309;-49
2022/03/22 10:11:40;;;;;;;;;17.50;16.50;;;;;28.24;15.36;102600.22;5116991;27;45561;-51
2022/03/22 10:14:08;;;;;;;;;22.60;17.20;;;;;29.65;13.22;102601.56;5116814;27;45403;-51
2022/03/22 10:16:48;;;;;;;;;17.75;17.50;;;;;31.13;12.68;102597.25;5117175;27;45420;-51
2022/03/22 10:19:21;;;;;;;;;18.75;14.00;;;;;32.14;11.71;102594.19;5117394;27;45622;-52
2022/03/22 10:21:47;;;;;;;;;16.40;16.40;;;;;32.64;11.64;102587.94;5116634;27;46408;-52
2022/03/22 10:24:15;;;;;;;;;16.00;15.25;;;;;33.35;10.54;102590.97;5116527;27;45432;-50
2022/03/22 10:26:44;;;;;;;;;24.20;18.20;;;;;33.98;10.25;102573.00;5116880;27;45350;-51
2022/03/22 10:29:11;;;;;;;;;19.40;17.00;;;;;34.42;11.55;102581.97;5117148;27;45426;-49
2022/03/22 10:31:39;;;;;;;;;20.60;19.60;;;;;35.52;9.49;102586.91;5116556;27;46420;-52
2022/03/22 10:34:04;;;;;;;;;19.40;17.00;;;;;36.43;9.63;102569.66;5117004;27;45585;-53
2022/03/22 10:36:36;;;;;;;;;17.00;17.00;;;;;36.54;11.20;102566.94;5115475;27;45747;-55
2022/03/22 10:39:06;;;;;;;;;16.40;14.60;;;;;36.73;9.37;102585.47;5117258;27;45337;-48
2022/03/22 10:41:33;;;;;;;;;18.00;15.80;;;;;36.81;8.79;102574.94;5116512;27;46378;-50
2022/03/22 10:44:06;;;;;;;;;9.00;8.60;;;;;37.09;10.14;102568.78;5117024;27;45876;-55
2022/03/22 10:46:33;;;;;;;;;14.60;14.40;;;;;37.73;8.82;102561.59;5116914;27;45476;-52
2022/03/22 10:49:08;;;;;;;;;19.60;19.60;;;;;38.48;8.48;102572.50;5116975;27;45248;-50
2022/03/22 10:51:42;;;;;;;;;19.20;16.80;;;;;38.58;8.39;102560.44;5119056;27;45340;-51
2022/03/22 10:54:12;;;;;;;;;18.80;16.00;;;;;38.44;8.24;102552.78;5120339;27;45238;-48
2022/03/22 10:56:43;;;;;;;;;15.80;15.80;;;;;38.76;7.96;102564.41;5120362;27;45405;-53
2022/03/22 10:59:11;;;;;;;;;17.80;17.80;;;;;39.17;8.74;102557.31;5120553;27;45831;-51
2022/03/22 11:01:41;;;;;;;;;17.20;17.00;;;;;39.55;8.63;102543.47;5120261;27;45319;-51
2022/03/22 11:04:08;;;;;;;;;16.00;16.00;;;;;40.27;7.23;102548.81;5120010;27;45335;-52
2022/03/22 11:06:35;;;;;;;;;16.40;16.40;;;;;40.48;9.84;102534.50;5120207;27;45354;-52
2022/03/22 11:09:01;;;;;;;;;20.20;15.80;;;;;40.35;7.16;102547.28;5120467;27;45371;-48
2022/03/22 11:11:28;;;;;;;;;22.80;19.40;;;;;40.78;7.05;102542.31;5119955;27;46381;-49
2022/03/22 11:13:54;;;;;;;;;18.40;15.60;;;;;40.87;7.04;102536.84;5119806;27;45333;-47
2022/03/22 11:16:20;;;;;;;;;17.75;17.00;;;;;40.87;8.30;102537.66;5120053;27;45304;-51
2022/03/22 11:18:46;;;;;;;;;17.80;17.80;;;;;40.87;6.59;102539.63;5120323;27;45314;-53
2022/03/22 11:21:19;;;;;;;;;15.60;15.20;;;;;41.36;7.37;102536.09;5119586;27;45330;-49
2022/03/22 11:23:47;;;;;;;;;19.00;16.00;;;;;41.48;6.39;102526.41;5119752;27;45479;-49
2022/03/22 11:26:17;;;;;;;;;20.80;16.60;;;;;41.34;6.25;102535.59;5120003;27;45338;-49
2022/03/22 11:28:45;;;;;;;;;16.20;15.60;;;;;40.84;7.59;102529.94;5119947;27;45203;-54
2022/03/22 11:31:14;;;;;;;;;18.80;16.60;;;;;40.75;7.48;102526.22;5119707;27;45339;-50
2022/03/22 11:36:27;;;;;;;;;22.40;20.40;;;;;40.13;8.45;102526.47;5119650;27;45306;-50